sensor_id;sensor_type;location;lat;lon;timestamp;temperature;humidity
43647;DHT22;56152;49.996;18.980;2022-11-06T00:04:45;7.50;96.70
43647;DHT22;56152;49.996;18.980;2022-11-06T00:09:49;7.40;96.70
43647;DHT22;56152;49.996;18.980;2022-11-06T00:14:52;7.40;96.80
43647;DHT22;56152;49.996;18.980;2022-11-06T00:19:54;7.40;96.80
43647;DHT22;56152;49.996;18.980;2022-11-06T00:24:59;7.40;96.80
43647;DHT22;56152;49.996;18.980;2022-11-06T00:30:03;7.40;96.80
43647;DHT22;56152;49.996;18.980;2022-11-06T00:35:06;7.30;96.80
43647;DHT22;56152;49.996;18.980;2022-11-06T00:40:11;7.30;96.80
43647;DHT22;56152;49.996;18.980;2022-11-06T00:45:15;7.30;96.80
43647;DHT22;56152;49.996;18.980;2022-11-06T00:50:17;7.30;96.80
43647;DHT22;56152;49.996;18.980;2022-11-06T00:55:28;7.30;96.90
43647;DHT22;56152;49.996;18.980;2022-11-06T01:00:30;7.30;96.90
43647;DHT22;56152;49.996;18.980;2022-11-06T01:05:32;7.30;96.90
43647;DHT22;56152;49.996;18.980;2022-11-06T01:11:06;7.20;96.90
43647;DHT22;56152;49.996;18.980;2022-11-06T01:16:11;7.20;96.90
43647;DHT22;56152;49.996;18.980;2022-11-06T01:21:30;7.20;96.90
43647;DHT22;56152;49.996;18.980;2022-11-06T01:26:46;7.20;96.90
43647;DHT22;56152;49.996;18.980;2022-11-06T01:31:48;7.10;96.90
43647;DHT22;56152;49.996;18.980;2022-11-06T01:36:50;7.10;97.00
43647;DHT22;56152;49.996;18.980;2022-11-06T01:42:06;7.00;97.00
43647;DHT22;56152;49.996;18.980;2022-11-06T01:47:21;7.00;97.00
43647;DHT22;56152;49.996;18.980;2022-11-06T01:52:26;6.90;97.10
43647;DHT22;56152;49.996;18.980;2022-11-06T01:57:41;6.90;97.10
43647;DHT22;56152;49.996;18.980;2022-11-06T02:02:44;6.90;97.10
43647;DHT22;56152;49.996;18.980;2022-11-06T02:07:51;6.90;97.10
43647;DHT22;56152;49.996;18.980;2022-11-06T02:13:02;6.80;97.10
43647;DHT22;56152;49.996;18.980;2022-11-06T02:18:39;6.80;97.20
43647;DHT22;56152;49.996;18.980;2022-11-06T02:23:59;6.80;97.20
43647;DHT22;56152;49.996;18.980;2022-11-06T02:29:08;6.70;97.20
43647;DHT22;56152;49.996;18.980;2022-11-06T02:34:14;6.60;97.20
43647;DHT22;56152;49.996;18.980;2022-11-06T02:39:19;6.60;97.20
43647;DHT22;56152;49.996;18.980;2022-11-06T02:44:26;6.60;97.20
43647;DHT22;56152;49.996;18.980;2022-11-06T02:49:31;6.60;97.20
43647;DHT22;56152;49.996;18.980;2022-11-06T02:54:44;6.60;97.20
43647;DHT22;56152;49.996;18.980;2022-11-06T02:59:53;6.60;97.20
43647;DHT22;56152;49.996;18.980;2022-11-06T03:05:34;6.60;97.20
43647;DHT22;56152;49.996;18.980;2022-11-06T03:10:44;6.50;97.20
43647;DHT22;56152;49.996;18.980;2022-11-06T03:15:54;6.50;97.20
43647;DHT22;56152;49.996;18.980;2022-11-06T03:21:20;6.50;97.30
43647;DHT22;56152;49.996;18.980;2022-11-06T03:26:27;6.50;97.30
43647;DHT22;56152;49.996;18.980;2022-11-06T03:31:35;6.50;97.30
43647;DHT22;56152;49.996;18.980;2022-11-06T03:36:42;6.50;97.30
43647;DHT22;56152;49.996;18.980;2022-11-06T03:41:52;6.40;97.30
43647;DHT22;56152;49.996;18.980;2022-11-06T03:47:11;6.40;97.30
43647;DHT22;56152;49.996;18.980;2022-11-06T03:52:23;6.40;97.30
43647;DHT22;56152;49.996;18.980;2022-11-06T03:57:34;6.40;97.30
43647;DHT22;56152;49.996;18.980;2022-11-06T04:02:39;6.40;97.20
43647;DHT22;56152;49.996;18.980;2022-11-06T04:07:46;6.40;97.20
43647;DHT22;56152;49.996;18.980;2022-11-06T04:13:09;6.40;97.20
43647;DHT22;56152;49.996;18.980;2022-11-06T04:18:28;6.30;97.20
43647;DHT22;56152;49.996;18.980;2022-11-06T04:23:37;6.30;97.20
43647;DHT22;56152;49.996;18.980;2022-11-06T04:28:47;6.20;97.30
43647;DHT22;56152;49.996;18.980;2022-11-06T04:33:56;6.10;97.30
43647;DHT22;56152;49.996;18.980;2022-11-06T04:39:05;6.10;97.40
43647;DHT22;56152;49.996;18.980;2022-11-06T04:44:15;6.00;97.40
43647;DHT22;56152;49.996;18.980;2022-11-06T04:49:21;6.00;97.40
43647;DHT22;56152;49.996;18.980;2022-11-06T04:54:28;5.90;97.50
43647;DHT22;56152;49.996;18.980;2022-11-06T04:59:33;5.80;97.50
43647;DHT22;56152;49.996;18.980;2022-11-06T05:04:35;5.70;97.50
43647;DHT22;56152;49.996;18.980;2022-11-06T05:09:39;5.60;97.50
43647;DHT22;56152;49.996;18.980;2022-11-06T05:14:41;5.50;97.60
43647;DHT22;56152;49.996;18.980;2022-11-06T05:19:45;5.50;97.70
43647;DHT22;56152;49.996;18.980;2022-11-06T05:24:49;5.50;97.60
43647;DHT22;56152;49.996;18.980;2022-11-06T05:29:51;5.40;97.50
43647;DHT22;56152;49.996;18.980;2022-11-06T05:34:54;5.40;97.60
43647;DHT22;56152;49.996;18.980;2022-11-06T05:39:59;5.40;97.50
43647;DHT22;56152;49.996;18.980;2022-11-06T05:45:00;5.40;97.50
43647;DHT22;56152;49.996;18.980;2022-11-06T05:50:06;5.30;97.50
43647;DHT22;56152;49.996;18.980;2022-11-06T05:55:11;5.30;97.50
43647;DHT22;56152;49.996;18.980;2022-11-06T06:00:13;5.30;97.40
43647;DHT22;56152;49.996;18.980;2022-11-06T06:05:15;5.30;97.40
43647;DHT22;56152;49.996;18.980;2022-11-06T06:10:19;5.20;97.50
43647;DHT22;56152;49.996;18.980;2022-11-06T06:15:21;5.20;97.50
43647;DHT22;56152;49.996;18.980;2022-11-06T06:20:23;5.20;97.50
43647;DHT22;56152;49.996;18.980;2022-11-06T06:25:28;5.20;97.50
43647;DHT22;56152;49.996;18.980;2022-11-06T06:30:30;5.20;97.60
43647;DHT22;56152;49.996;18.980;2022-11-06T06:35:32;5.20;97.60
43647;DHT22;56152;49.996;18.980;2022-11-06T06:40:37;5.30;97.60
43647;DHT22;56152;49.996;18.980;2022-11-06T06:45:39;5.30;97.60
43647;DHT22;56152;49.996;18.980;2022-11-06T06:50:42;5.30;97.50
43647;DHT22;56152;49.996;18.980;2022-11-06T06:55:48;5.30;97.60
43647;DHT22;56152;49.996;18.980;2022-11-06T07:00:50;5.40;97.60
43647;DHT22;56152;49.996;18.980;2022-11-06T07:05:55;5.50;97.50
43647;DHT22;56152;49.996;18.980;2022-11-06T07:11:02;5.50;97.40
43647;DHT22;56152;49.996;18.980;2022-11-06T07:16:08;5.50;97.40
43647;DHT22;56152;49.996;18.980;2022-11-06T07:21:15;5.50;97.40
43647;DHT22;56152;49.996;18.980;2022-11-06T07:26:19;5.50;97.50
43647;DHT22;56152;49.996;18.980;2022-11-06T07:31:21;5.50;97.50
43647;DHT22;56152;49.996;18.980;2022-11-06T07:36:23;5.50;97.50
43647;DHT22;56152;49.996;18.980;2022-11-06T07:41:26;5.50;97.50
43647;DHT22;56152;49.996;18.980;2022-11-06T07:46:29;5.50;97.50
43647;DHT22;56152;49.996;18.980;2022-11-06T07:51:31;5.50;97.50
43647;DHT22;56152;49.996;18.980;2022-11-06T07:56:34;5.50;97.50
43647;DHT22;56152;49.996;18.980;2022-11-06T08:01:36;5.50;97.50
43647;DHT22;56152;49.996;18.980;2022-11-06T08:06:38;5.50;97.50
43647;DHT22;56152;49.996;18.980;2022-11-06T08:11:41;5.50;97.60
43647;DHT22;56152;49.996;18.980;2022-11-06T08:16:43;5.50;97.60
43647;DHT22;56152;49.996;18.980;2022-11-06T08:21:46;5.60;97.60
43647;DHT22;56152;49.996;18.980;2022-11-06T08:26:50;5.60;97.50
43647;DHT22;56152;49.996;18.980;2022-11-06T08:31:54;5.70;97.50
43647;DHT22;56152;49.996;18.980;2022-11-06T08:36:58;5.70;97.50
43647;DHT22;56152;49.996;18.980;2022-11-06T08:42:02;5.80;97.50
43647;DHT22;56152;49.996;18.980;2022-11-06T08:47:04;5.80;97.40
43647;DHT22;56152;49.996;18.980;2022-11-06T08:52:07;5.80;97.30
43647;DHT22;56152;49.996;18.980;2022-11-06T08:57:13;5.80;97.40
43647;DHT22;56152;49.996;18.980;2022-11-06T09:02:15;5.90;97.50
43647;DHT22;56152;49.996;18.980;2022-11-06T09:07:19;6.10;97.40
43647;DHT22;56152;49.996;18.980;2022-11-06T09:12:23;6.20;97.30
43647;DHT22;56152;49.996;18.980;2022-11-06T09:17:25;6.50;97.30
43647;DHT22;56152;49.996;18.980;2022-11-06T09:22:27;6.90;97.10
43647;DHT22;56152;49.996;18.980;2022-11-06T09:27:31;7.20;96.90
43647;DHT22;56152;49.996;18.980;2022-11-06T09:32:33;7.50;96.60
43647;DHT22;56152;49.996;18.980;2022-11-06T09:37:34;7.80;96.50
43647;DHT22;56152;49.996;18.980;2022-11-06T09:42:52;8.00;96.30
43647;DHT22;56152;49.996;18.980;2022-11-06T09:47:59;8.20;96.20
43647;DHT22;56152;49.996;18.980;2022-11-06T09:53:08;8.20;96.10
43647;DHT22;56152;49.996;18.980;2022-11-06T09:58:17;8.60;95.90
43647;DHT22;56152;49.996;18.980;2022-11-06T10:03:29;8.90;95.50
43647;DHT22;56152;49.996;18.980;2022-11-06T10:08:35;9.30;95.40
43647;DHT22;56152;49.996;18.980;2022-11-06T10:13:57;9.80;94.80
43647;DHT22;56152;49.996;18.980;2022-11-06T10:19:10;9.90;94.20
43647;DHT22;56152;49.996;18.980;2022-11-06T10:24:21;9.90;94.30
43647;DHT22;56152;49.996;18.980;2022-11-06T10:35:24;9.70;94.20
43647;DHT22;56152;49.996;18.980;2022-11-06T10:40:31;9.90;94.50
43647;DHT22;56152;49.996;18.980;2022-11-06T10:45:35;9.80;94.40
43647;DHT22;56152;49.996;18.980;2022-11-06T10:50:49;10.00;94.50
43647;DHT22;56152;49.996;18.980;2022-11-06T10:56:10;10.10;94.10
43647;DHT22;56152;49.996;18.980;2022-11-06T11:01:17;10.20;94.10
43647;DHT22;56152;49.996;18.980;2022-11-06T11:06:20;10.20;94.10
43647;DHT22;56152;49.996;18.980;2022-11-06T11:11:23;10.30;94.10
43647;DHT22;56152;49.996;18.980;2022-11-06T11:16:27;10.20;94.00
43647;DHT22;56152;49.996;18.980;2022-11-06T11:21:31;10.30;93.60
43647;DHT22;56152;49.996;18.980;2022-11-06T11:26:36;10.20;93.90
43647;DHT22;56152;49.996;18.980;2022-11-06T11:31:42;10.20;93.70
43647;DHT22;56152;49.996;18.980;2022-11-06T11:36:50;10.10;93.80
43647;DHT22;56152;49.996;18.980;2022-11-06T11:42:28;10.20;93.60
43647;DHT22;56152;49.996;18.980;2022-11-06T11:48:18;10.30;93.50
43647;DHT22;56152;49.996;18.980;2022-11-06T11:53:28;10.50;93.00
43647;DHT22;56152;49.996;18.980;2022-11-06T11:58:31;10.40;92.90
43647;DHT22;56152;49.996;18.980;2022-11-06T12:03:40;10.60;93.10
43647;DHT22;56152;49.996;18.980;2022-11-06T12:08:52;10.80;92.70
43647;DHT22;56152;49.996;18.980;2022-11-06T12:14:15;11.10;92.50
43647;DHT22;56152;49.996;18.980;2022-11-06T12:19:20;11.10;92.20
43647;DHT22;56152;49.996;18.980;2022-11-06T12:24:27;11.30;92.00
43647;DHT22;56152;49.996;18.980;2022-11-06T12:29:34;11.20;91.90
43647;DHT22;56152;49.996;18.980;2022-11-06T12:34:41;11.10;91.70
43647;DHT22;56152;49.996;18.980;2022-11-06T12:39:53;11.10;92.10
43647;DHT22;56152;49.996;18.980;2022-11-06T12:44:56;11.10;92.00
43647;DHT22;56152;49.996;18.980;2022-11-06T12:50:21;11.10;91.80
43647;DHT22;56152;49.996;18.980;2022-11-06T12:55:58;11.10;91.90
43647;DHT22;56152;49.996;18.980;2022-11-06T13:01:08;11.10;91.30
43647;DHT22;56152;49.996;18.980;2022-11-06T13:06:22;11.10;91.60
43647;DHT22;56152;49.996;18.980;2022-11-06T13:11:35;11.00;91.60
43647;DHT22;56152;49.996;18.980;2022-11-06T13:16:44;10.90;91.70
43647;DHT22;56152;49.996;18.980;2022-11-06T13:22:31;10.90;91.60
43647;DHT22;56152;49.996;18.980;2022-11-06T13:27:42;10.80;91.70
43647;DHT22;56152;49.996;18.980;2022-11-06T13:32:58;10.70;91.60
43647;DHT22;56152;49.996;18.980;2022-11-06T13:38:01;10.70;91.60
43647;DHT22;56152;49.996;18.980;2022-11-06T13:43:15;10.60;91.60
43647;DHT22;56152;49.996;18.980;2022-11-06T13:48:30;10.50;91.80
43647;DHT22;56152;49.996;18.980;2022-11-06T13:53:39;10.40;92.10
43647;DHT22;56152;49.996;18.980;2022-11-06T13:59:13;10.40;92.20
43647;DHT22;56152;49.996;18.980;2022-11-06T14:04:36;10.50;92.10
43647;DHT22;56152;49.996;18.980;2022-11-06T14:09:45;10.60;91.90
43647;DHT22;56152;49.996;18.980;2022-11-06T14:14:52;10.80;91.70
43647;DHT22;56152;49.996;18.980;2022-11-06T14:20:29;10.70;91.50
43647;DHT22;56152;49.996;18.980;2022-11-06T14:25:53;10.40;91.50
43647;DHT22;56152;49.996;18.980;2022-11-06T14:31:06;10.20;91.80
43647;DHT22;56152;49.996;18.980;2022-11-06T14:36:12;10.00;92.10
43647;DHT22;56152;49.996;18.980;2022-11-06T14:41:52;9.80;92.20
43647;DHT22;56152;49.996;18.980;2022-11-06T14:46:59;9.60;92.20
43647;DHT22;56152;49.996;18.980;2022-11-06T14:52:04;9.40;92.40
43647;DHT22;56152;49.996;18.980;2022-11-06T14:57:10;9.30;92.60
43647;DHT22;56152;49.996;18.980;2022-11-06T15:02:22;9.10;92.70
43647;DHT22;56152;49.996;18.980;2022-11-06T15:07:31;9.10;92.80
43647;DHT22;56152;49.996;18.980;2022-11-06T15:13:07;9.00;92.80
43647;DHT22;56152;49.996;18.980;2022-11-06T15:18:17;8.80;92.80
43647;DHT22;56152;49.996;18.980;2022-11-06T15:23:22;8.70;92.90
43647;DHT22;56152;49.996;18.980;2022-11-06T15:28:28;8.70;92.80
43647;DHT22;56152;49.996;18.980;2022-11-06T15:33:40;8.60;92.90
43647;DHT22;56152;49.996;18.980;2022-11-06T15:38:44;8.60;93.00
43647;DHT22;56152;49.996;18.980;2022-11-06T15:43:48;8.50;93.10
43647;DHT22;56152;49.996;18.980;2022-11-06T15:49:14;8.40;93.10
43647;DHT22;56152;49.996;18.980;2022-11-06T15:54:29;8.30;93.10
43647;DHT22;56152;49.996;18.980;2022-11-06T15:59:31;8.20;93.20
43647;DHT22;56152;49.996;18.980;2022-11-06T16:04:36;8.10;93.30
43647;DHT22;56152;49.996;18.980;2022-11-06T16:09:41;8.10;93.40
43647;DHT22;56152;49.996;18.980;2022-11-06T16:14:44;7.90;93.50
43647;DHT22;56152;49.996;18.980;2022-11-06T16:19:53;7.80;93.70
43647;DHT22;56152;49.996;18.980;2022-11-06T16:25:00;7.70;93.80
43647;DHT22;56152;49.996;18.980;2022-11-06T16:30:03;7.70;93.90
43647;DHT22;56152;49.996;18.980;2022-11-06T16:35:33;7.60;94.00
43647;DHT22;56152;49.996;18.980;2022-11-06T16:40:48;7.60;94.10
43647;DHT22;56152;49.996;18.980;2022-11-06T16:45:55;7.50;94.10
43647;DHT22;56152;49.996;18.980;2022-11-06T16:51:29;7.40;94.40
43647;DHT22;56152;49.996;18.980;2022-11-06T16:56:33;7.40;94.10
43647;DHT22;56152;49.996;18.980;2022-11-06T17:01:37;7.40;94.20
43647;DHT22;56152;49.996;18.980;2022-11-06T17:06:43;7.30;94.30
43647;DHT22;56152;49.996;18.980;2022-11-06T17:11:46;7.20;94.30
43647;DHT22;56152;49.996;18.980;2022-11-06T17:16:50;7.20;94.40
43647;DHT22;56152;49.996;18.980;2022-11-06T17:21:56;7.10;94.40
43647;DHT22;56152;49.996;18.980;2022-11-06T17:26:58;7.10;94.50
43647;DHT22;56152;49.996;18.980;2022-11-06T17:32:00;7.00;94.50
43647;DHT22;56152;49.996;18.980;2022-11-06T17:37:04;6.90;94.60
43647;DHT22;56152;49.996;18.980;2022-11-06T17:42:07;6.90;94.70
43647;DHT22;56152;49.996;18.980;2022-11-06T17:47:14;6.90;94.70
43647;DHT22;56152;49.996;18.980;2022-11-06T17:52:18;6.90;94.70
43647;DHT22;56152;49.996;18.980;2022-11-06T17:57:21;7.00;94.70
43647;DHT22;56152;49.996;18.980;2022-11-06T18:02:23;7.00;94.70
43647;DHT22;56152;49.996;18.980;2022-11-06T18:07:27;7.10;94.70
43647;DHT22;56152;49.996;18.980;2022-11-06T18:12:29;7.10;94.70
43647;DHT22;56152;49.996;18.980;2022-11-06T18:17:31;7.10;94.70
43647;DHT22;56152;49.996;18.980;2022-11-06T18:22:36;7.20;94.70
43647;DHT22;56152;49.996;18.980;2022-11-06T18:27:37;7.20;94.70
43647;DHT22;56152;49.996;18.980;2022-11-06T18:32:41;7.20;94.60
43647;DHT22;56152;49.996;18.980;2022-11-06T18:37:44;7.20;94.60
43647;DHT22;56152;49.996;18.980;2022-11-06T18:42:46;7.20;94.70
43647;DHT22;56152;49.996;18.980;2022-11-06T18:47:48;7.20;94.70
43647;DHT22;56152;49.996;18.980;2022-11-06T18:53:01;7.20;94.70
43647;DHT22;56152;49.996;18.980;2022-11-06T18:58:21;7.20;94.70
43647;DHT22;56152;49.996;18.980;2022-11-06T19:03:38;7.20;94.70
43647;DHT22;56152;49.996;18.980;2022-11-06T19:08:43;7.20;94.70
43647;DHT22;56152;49.996;18.980;2022-11-06T19:13:45;7.30;94.80
43647;DHT22;56152;49.996;18.980;2022-11-06T19:18:49;7.30;95.00
43647;DHT22;56152;49.996;18.980;2022-11-06T19:23:53;7.30;94.70
43647;DHT22;56152;49.996;18.980;2022-11-06T19:29:10;7.30;94.80
43647;DHT22;56152;49.996;18.980;2022-11-06T19:34:26;7.40;94.90
43647;DHT22;56152;49.996;18.980;2022-11-06T19:39:48;7.40;94.90
43647;DHT22;56152;49.996;18.980;2022-11-06T19:50:47;7.50;94.90
43647;DHT22;56152;49.996;18.980;2022-11-06T19:56:16;7.60;94.90
43647;DHT22;56152;49.996;18.980;2022-11-06T20:01:19;7.60;94.90
43647;DHT22;56152;49.996;18.980;2022-11-06T20:06:21;7.60;94.90
43647;DHT22;56152;49.996;18.980;2022-11-06T20:11:24;7.60;95.00
43647;DHT22;56152;49.996;18.980;2022-11-06T20:16:26;7.60;95.00
43647;DHT22;56152;49.996;18.980;2022-11-06T20:21:34;7.70;95.10
43647;DHT22;56152;49.996;18.980;2022-11-06T20:26:38;7.70;95.10
43647;DHT22;56152;49.996;18.980;2022-11-06T20:31:41;7.80;95.20
43647;DHT22;56152;49.996;18.980;2022-11-06T20:36:52;7.80;95.20
43647;DHT22;56152;49.996;18.980;2022-11-06T20:41:56;7.80;95.20
43647;DHT22;56152;49.996;18.980;2022-11-06T20:46:57;7.80;95.20
43647;DHT22;56152;49.996;18.980;2022-11-06T20:52:01;7.80;95.20
43647;DHT22;56152;49.996;18.980;2022-11-06T20:57:05;7.80;95.30
43647;DHT22;56152;49.996;18.980;2022-11-06T21:02:08;7.80;95.30
43647;DHT22;56152;49.996;18.980;2022-11-06T21:07:12;7.90;95.30
43647;DHT22;56152;49.996;18.980;2022-11-06T21:12:16;7.90;95.30
43647;DHT22;56152;49.996;18.980;2022-11-06T21:17:19;7.90;95.30
43647;DHT22;56152;49.996;18.980;2022-11-06T21:22:20;7.90;95.30
43647;DHT22;56152;49.996;18.980;2022-11-06T21:27:24;7.90;95.30
43647;DHT22;56152;49.996;18.980;2022-11-06T21:32:28;7.90;95.30
43647;DHT22;56152;49.996;18.980;2022-11-06T21:37:30;7.90;95.30
43647;DHT22;56152;49.996;18.980;2022-11-06T21:42:38;7.90;95.30
43647;DHT22;56152;49.996;18.980;2022-11-06T21:47:40;7.90;95.40
43647;DHT22;56152;49.996;18.980;2022-11-06T21:52:44;7.90;95.40
43647;DHT22;56152;49.996;18.980;2022-11-06T21:58:13;7.90;95.40
43647;DHT22;56152;49.996;18.980;2022-11-06T22:03:14;7.90;95.40
43647;DHT22;56152;49.996;18.980;2022-11-06T22:08:17;7.90;95.40
43647;DHT22;56152;49.996;18.980;2022-11-06T22:13:24;7.90;95.40
43647;DHT22;56152;49.996;18.980;2022-11-06T22:18:32;7.90;95.40
43647;DHT22;56152;49.996;18.980;2022-11-06T22:23:37;7.90;95.40
43647;DHT22;56152;49.996;18.980;2022-11-06T22:28:41;7.80;95.40
43647;DHT22;56152;49.996;18.980;2022-11-06T22:33:43;7.80;95.50
43647;DHT22;56152;49.996;18.980;2022-11-06T22:38:46;7.70;95.50
43647;DHT22;56152;49.996;18.980;2022-11-06T22:43:50;7.60;95.50
43647;DHT22;56152;49.996;18.980;2022-11-06T22:48:54;7.50;95.60
43647;DHT22;56152;49.996;18.980;2022-11-06T22:54:01;7.40;95.70
43647;DHT22;56152;49.996;18.980;2022-11-06T22:59:07;7.30;95.80
43647;DHT22;56152;49.996;18.980;2022-11-06T23:04:12;7.20;95.80
43647;DHT22;56152;49.996;18.980;2022-11-06T23:09:15;7.10;95.90
43647;DHT22;56152;49.996;18.980;2022-11-06T23:14:19;7.00;96.00
43647;DHT22;56152;49.996;18.980;2022-11-06T23:19:22;6.80;96.20
43647;DHT22;56152;49.996;18.980;2022-11-06T23:24:23;6.70;96.30
43647;DHT22;56152;49.996;18.980;2022-11-06T23:29:27;6.60;96.40
43647;DHT22;56152;49.996;18.980;2022-11-06T23:34:30;6.70;96.50
43647;DHT22;56152;49.996;18.980;2022-11-06T23:39:35;6.70;96.40
43647;DHT22;56152;49.996;18.980;2022-11-06T23:44:41;6.70;96.40
43647;DHT22;56152;49.996;18.980;2022-11-06T23:50:00;6.70;96.30
43647;DHT22;56152;49.996;18.980;2022-11-06T23:55:02;6.60;96.30
